sensor_id;sensor_type;location;lat;lon;timestamp;P1;durP1;ratioP1;P2;durP2;ratioP2
45887;SDS011;31595;51.418;7.572;2023-01-01T00:00:20;8.15;;;3.78;;
45887;SDS011;31595;51.418;7.572;2023-01-01T00:02:47;9.77;;;5.05;;
45887;SDS011;31595;51.418;7.572;2023-01-01T00:05:15;10.93;;;6.60;;
45887;SDS011;31595;51.418;7.572;2023-01-01T00:07:43;8.52;;;3.30;;
45887;SDS011;31595;51.418;7.572;2023-01-01T00:10:12;6.45;;;3.75;;
45887;SDS011;31595;51.418;7.572;2023-01-01T00:12:54;7.43;;;3.55;;
45887;SDS011;31595;51.418;7.572;2023-01-01T00:15:21;7.22;;;3.40;;
45887;SDS011;31595;51.418;7.572;2023-01-01T00:17:49;8.52;;;3.70;;
45887;SDS011;31595;51.418;7.572;2023-01-01T00:20:16;7.43;;;3.78;;
45887;SDS011;31595;51.418;7.572;2023-01-01T00:22:45;6.47;;;3.78;;
45887;SDS011;31595;51.418;7.572;2023-01-01T00:25:12;4.85;;;3.58;;
45887;SDS011;31595;51.418;7.572;2023-01-01T00:27:40;6.68;;;4.20;;
45887;SDS011;31595;51.418;7.572;2023-01-01T00:30:08;6.78;;;4.05;;
45887;SDS011;31595;51.418;7.572;2023-01-01T00:32:36;8.50;;;3.47;;
45887;SDS011;31595;51.418;7.572;2023-01-01T00:35:04;7.72;;;4.00;;
45887;SDS011;31595;51.418;7.572;2023-01-01T00:37:32;9.25;;;3.97;;
45887;SDS011;31595;51.418;7.572;2023-01-01T00:40:01;5.90;;;3.50;;
45887;SDS011;31595;51.418;7.572;2023-01-01T00:42:28;9.52;;;4.53;;
45887;SDS011;31595;51.418;7.572;2023-01-01T00:44:55;7.97;;;4.30;;
45887;SDS011;31595;51.418;7.572;2023-01-01T00:47:22;7.95;;;5.03;;
45887;SDS011;31595;51.418;7.572;2023-01-01T00:49:49;15.90;;;5.07;;
45887;SDS011;31595;51.418;7.572;2023-01-01T00:52:17;10.95;;;5.03;;
45887;SDS011;31595;51.418;7.572;2023-01-01T00:54:44;7.05;;;4.50;;
45887;SDS011;31595;51.418;7.572;2023-01-01T00:57:13;14.95;;;5.60;;
45887;SDS011;31595;51.418;7.572;2023-01-01T00:59:40;8.63;;;5.18;;
45887;SDS011;31595;51.418;7.572;2023-01-01T01:02:07;8.77;;;4.70;;
45887;SDS011;31595;51.418;7.572;2023-01-01T01:04:35;10.00;;;4.82;;
45887;SDS011;31595;51.418;7.572;2023-01-01T01:07:02;8.38;;;5.00;;
45887;SDS011;31595;51.418;7.572;2023-01-01T01:09:29;10.25;;;5.93;;
45887;SDS011;31595;51.418;7.572;2023-01-01T01:11:57;6.82;;;4.63;;
45887;SDS011;31595;51.418;7.572;2023-01-01T01:14:25;11.35;;;5.25;;
45887;SDS011;31595;51.418;7.572;2023-01-01T01:16:56;8.10;;;5.37;;
45887;SDS011;31595;51.418;7.572;2023-01-01T01:19:23;8.55;;;5.35;;
45887;SDS011;31595;51.418;7.572;2023-01-01T01:21:51;10.10;;;5.32;;
45887;SDS011;31595;51.418;7.572;2023-01-01T01:24:18;7.80;;;5.25;;
45887;SDS011;31595;51.418;7.572;2023-01-01T01:26:45;8.73;;;5.35;;
45887;SDS011;31595;51.418;7.572;2023-01-01T01:29:13;8.68;;;4.75;;
45887;SDS011;31595;51.418;7.572;2023-01-01T01:31:41;6.55;;;4.82;;
45887;SDS011;31595;51.418;7.572;2023-01-01T01:34:08;7.75;;;4.53;;
45887;SDS011;31595;51.418;7.572;2023-01-01T01:36:36;7.50;;;4.65;;
45887;SDS011;31595;51.418;7.572;2023-01-01T01:39:03;7.13;;;4.57;;
45887;SDS011;31595;51.418;7.572;2023-01-01T01:41:30;6.07;;;4.18;;
45887;SDS011;31595;51.418;7.572;2023-01-01T01:43:58;6.70;;;4.00;;
45887;SDS011;31595;51.418;7.572;2023-01-01T01:46:30;6.87;;;4.00;;
45887;SDS011;31595;51.418;7.572;2023-01-01T01:49:04;7.53;;;3.90;;
45887;SDS011;31595;51.418;7.572;2023-01-01T01:51:36;6.30;;;3.80;;
45887;SDS011;31595;51.418;7.572;2023-01-01T01:54:06;7.90;;;3.50;;
45887;SDS011;31595;51.418;7.572;2023-01-01T01:56:45;8.15;;;4.18;;
45887;SDS011;31595;51.418;7.572;2023-01-01T01:59:15;5.35;;;2.97;;
45887;SDS011;31595;51.418;7.572;2023-01-01T02:01:46;5.68;;;2.70;;
45887;SDS011;31595;51.418;7.572;2023-01-01T02:04:15;5.68;;;3.13;;
45887;SDS011;31595;51.418;7.572;2023-01-01T02:06:43;5.20;;;2.58;;
45887;SDS011;31595;51.418;7.572;2023-01-01T02:09:12;4.60;;;2.00;;
45887;SDS011;31595;51.418;7.572;2023-01-01T02:11:40;4.25;;;2.40;;
45887;SDS011;31595;51.418;7.572;2023-01-01T02:14:07;3.50;;;2.40;;
45887;SDS011;31595;51.418;7.572;2023-01-01T02:16:36;6.60;;;2.65;;
45887;SDS011;31595;51.418;7.572;2023-01-01T02:19:08;5.82;;;2.88;;
45887;SDS011;31595;51.418;7.572;2023-01-01T02:21:48;3.47;;;2.05;;
45887;SDS011;31595;51.418;7.572;2023-01-01T02:27:15;4.53;;;2.15;;
45887;SDS011;31595;51.418;7.572;2023-01-01T02:29:51;3.22;;;1.80;;
45887;SDS011;31595;51.418;7.572;2023-01-01T02:32:22;3.53;;;2.20;;
45887;SDS011;31595;51.418;7.572;2023-01-01T02:34:57;5.53;;;2.00;;
45887;SDS011;31595;51.418;7.572;2023-01-01T02:37:49;3.63;;;1.92;;
45887;SDS011;31595;51.418;7.572;2023-01-01T02:40:19;3.17;;;1.90;;
45887;SDS011;31595;51.418;7.572;2023-01-01T02:42:52;4.22;;;1.70;;
45887;SDS011;31595;51.418;7.572;2023-01-01T02:45:24;3.20;;;1.70;;
45887;SDS011;31595;51.418;7.572;2023-01-01T02:47:51;3.37;;;1.90;;
45887;SDS011;31595;51.418;7.572;2023-01-01T02:50:19;4.40;;;2.00;;
45887;SDS011;31595;51.418;7.572;2023-01-01T02:52:59;4.05;;;1.60;;
45887;SDS011;31595;51.418;7.572;2023-01-01T02:55:38;3.45;;;1.40;;
45887;SDS011;31595;51.418;7.572;2023-01-01T02:58:15;4.07;;;1.50;;
45887;SDS011;31595;51.418;7.572;2023-01-01T03:01:10;5.68;;;1.80;;
45887;SDS011;31595;51.418;7.572;2023-01-01T03:03:46;4.90;;;1.70;;
45887;SDS011;31595;51.418;7.572;2023-01-01T03:06:23;4.30;;;1.50;;
45887;SDS011;31595;51.418;7.572;2023-01-01T03:08:57;3.28;;;1.40;;
45887;SDS011;31595;51.418;7.572;2023-01-01T03:11:36;4.75;;;1.50;;
45887;SDS011;31595;51.418;7.572;2023-01-01T03:14:14;3.35;;;1.63;;
45887;SDS011;31595;51.418;7.572;2023-01-01T03:16:49;6.13;;;1.77;;
45887;SDS011;31595;51.418;7.572;2023-01-01T03:19:21;3.13;;;1.55;;
45887;SDS011;31595;51.418;7.572;2023-01-01T03:21:53;5.47;;;1.73;;
45887;SDS011;31595;51.418;7.572;2023-01-01T03:24:28;4.13;;;1.40;;
45887;SDS011;31595;51.418;7.572;2023-01-01T03:27:01;3.88;;;1.75;;
45887;SDS011;31595;51.418;7.572;2023-01-01T03:29:33;5.28;;;1.52;;
45887;SDS011;31595;51.418;7.572;2023-01-01T03:32:06;3.42;;;1.65;;
45887;SDS011;31595;51.418;7.572;2023-01-01T03:34:46;3.17;;;1.58;;
45887;SDS011;31595;51.418;7.572;2023-01-01T03:37:20;5.53;;;1.77;;
45887;SDS011;31595;51.418;7.572;2023-01-01T03:39:51;5.65;;;1.90;;
45887;SDS011;31595;51.418;7.572;2023-01-01T03:42:21;3.58;;;1.65;;
45887;SDS011;31595;51.418;7.572;2023-01-01T03:44:59;3.78;;;1.38;;
45887;SDS011;31595;51.418;7.572;2023-01-01T03:47:31;6.05;;;1.50;;
45887;SDS011;31595;51.418;7.572;2023-01-01T03:50:01;4.97;;;1.60;;
45887;SDS011;31595;51.418;7.572;2023-01-01T03:52:32;4.95;;;1.90;;
45887;SDS011;31595;51.418;7.572;2023-01-01T03:55:11;2.72;;;1.45;;
45887;SDS011;31595;51.418;7.572;2023-01-01T03:57:43;4.45;;;1.50;;
45887;SDS011;31595;51.418;7.572;2023-01-01T04:00:17;5.07;;;1.30;;
45887;SDS011;31595;51.418;7.572;2023-01-01T04:02:49;3.65;;;1.55;;
45887;SDS011;31595;51.418;7.572;2023-01-01T04:05:20;3.28;;;1.55;;
45887;SDS011;31595;51.418;7.572;2023-01-01T04:07:49;3.88;;;1.58;;
45887;SDS011;31595;51.418;7.572;2023-01-01T04:10:18;3.35;;;1.40;;
45887;SDS011;31595;51.418;7.572;2023-01-01T04:12:50;2.22;;;1.20;;
45887;SDS011;31595;51.418;7.572;2023-01-01T04:15:19;2.60;;;1.20;;
45887;SDS011;31595;51.418;7.572;2023-01-01T04:17:50;5.25;;;1.35;;
45887;SDS011;31595;51.418;7.572;2023-01-01T04:20:21;4.35;;;1.60;;
45887;SDS011;31595;51.418;7.572;2023-01-01T04:22:48;3.60;;;1.40;;
45887;SDS011;31595;51.418;7.572;2023-01-01T04:25:16;5.13;;;1.55;;
45887;SDS011;31595;51.418;7.572;2023-01-01T04:27:44;4.07;;;1.77;;
45887;SDS011;31595;51.418;7.572;2023-01-01T04:30:12;4.70;;;1.13;;
45887;SDS011;31595;51.418;7.572;2023-01-01T04:32:40;5.90;;;2.03;;
45887;SDS011;31595;51.418;7.572;2023-01-01T04:35:11;3.65;;;1.70;;
45887;SDS011;31595;51.418;7.572;2023-01-01T04:37:40;2.00;;;1.17;;
45887;SDS011;31595;51.418;7.572;2023-01-01T04:40:09;4.00;;;1.45;;
45887;SDS011;31595;51.418;7.572;2023-01-01T04:42:38;3.88;;;1.23;;
45887;SDS011;31595;51.418;7.572;2023-01-01T04:45:06;3.17;;;1.25;;
45887;SDS011;31595;51.418;7.572;2023-01-01T04:47:34;3.05;;;1.30;;
45887;SDS011;31595;51.418;7.572;2023-01-01T04:50:01;3.05;;;1.40;;
45887;SDS011;31595;51.418;7.572;2023-01-01T04:52:30;3.92;;;1.30;;
45887;SDS011;31595;51.418;7.572;2023-01-01T04:54:57;4.15;;;1.70;;
45887;SDS011;31595;51.418;7.572;2023-01-01T04:57:25;4.50;;;1.88;;
45887;SDS011;31595;51.418;7.572;2023-01-01T04:59:54;5.22;;;1.55;;
45887;SDS011;31595;51.418;7.572;2023-01-01T05:02:21;4.95;;;1.38;;
45887;SDS011;31595;51.418;7.572;2023-01-01T05:04:49;4.35;;;1.63;;
45887;SDS011;31595;51.418;7.572;2023-01-01T05:07:16;3.28;;;1.58;;
45887;SDS011;31595;51.418;7.572;2023-01-01T05:09:44;5.20;;;1.40;;
45887;SDS011;31595;51.418;7.572;2023-01-01T05:12:12;4.55;;;1.90;;
45887;SDS011;31595;51.418;7.572;2023-01-01T05:14:39;3.92;;;1.52;;
45887;SDS011;31595;51.418;7.572;2023-01-01T05:17:07;5.10;;;1.67;;
45887;SDS011;31595;51.418;7.572;2023-01-01T05:19:34;3.05;;;1.35;;
45887;SDS011;31595;51.418;7.572;2023-01-01T05:22:02;4.43;;;1.30;;
45887;SDS011;31595;51.418;7.572;2023-01-01T05:24:30;4.00;;;1.30;;
45887;SDS011;31595;51.418;7.572;2023-01-01T05:27:02;2.85;;;1.33;;
45887;SDS011;31595;51.418;7.572;2023-01-01T05:29:33;2.65;;;1.30;;
45887;SDS011;31595;51.418;7.572;2023-01-01T05:32:00;4.78;;;1.17;;
45887;SDS011;31595;51.418;7.572;2023-01-01T05:34:27;4.25;;;1.60;;
45887;SDS011;31595;51.418;7.572;2023-01-01T05:36:54;3.65;;;1.77;;
45887;SDS011;31595;51.418;7.572;2023-01-01T05:39:22;4.75;;;1.70;;
45887;SDS011;31595;51.418;7.572;2023-01-01T05:41:49;5.68;;;1.80;;
45887;SDS011;31595;51.418;7.572;2023-01-01T05:44:21;4.03;;;1.55;;
45887;SDS011;31595;51.418;7.572;2023-01-01T05:46:48;3.80;;;1.50;;
45887;SDS011;31595;51.418;7.572;2023-01-01T05:49:16;4.18;;;1.60;;
45887;SDS011;31595;51.418;7.572;2023-01-01T05:51:43;4.28;;;1.70;;
45887;SDS011;31595;51.418;7.572;2023-01-01T05:54:11;3.97;;;1.45;;
45887;SDS011;31595;51.418;7.572;2023-01-01T05:56:38;4.13;;;1.67;;
45887;SDS011;31595;51.418;7.572;2023-01-01T05:59:05;4.63;;;1.70;;
45887;SDS011;31595;51.418;7.572;2023-01-01T06:01:34;6.00;;;1.70;;
45887;SDS011;31595;51.418;7.572;2023-01-01T06:04:01;2.50;;;1.25;;
45887;SDS011;31595;51.418;7.572;2023-01-01T06:06:31;4.82;;;1.50;;
45887;SDS011;31595;51.418;7.572;2023-01-01T06:08:59;3.05;;;1.40;;
45887;SDS011;31595;51.418;7.572;2023-01-01T06:11:27;4.05;;;1.45;;
45887;SDS011;31595;51.418;7.572;2023-01-01T06:13:57;4.80;;;1.90;;
45887;SDS011;31595;51.418;7.572;2023-01-01T06:16:26;4.57;;;1.80;;
45887;SDS011;31595;51.418;7.572;2023-01-01T06:19:00;4.10;;;1.50;;
45887;SDS011;31595;51.418;7.572;2023-01-01T06:21:28;4.47;;;1.48;;
45887;SDS011;31595;51.418;7.572;2023-01-01T06:23:59;2.47;;;1.30;;
45887;SDS011;31595;51.418;7.572;2023-01-01T06:26:27;3.67;;;1.48;;
45887;SDS011;31595;51.418;7.572;2023-01-01T06:28:55;3.83;;;1.85;;
45887;SDS011;31595;51.418;7.572;2023-01-01T06:31:27;3.65;;;1.48;;
45887;SDS011;31595;51.418;7.572;2023-01-01T06:33:57;4.75;;;1.98;;
45887;SDS011;31595;51.418;7.572;2023-01-01T06:36:24;6.75;;;1.65;;
45887;SDS011;31595;51.418;7.572;2023-01-01T06:38:55;4.43;;;1.60;;
45887;SDS011;31595;51.418;7.572;2023-01-01T06:41:23;5.70;;;1.65;;
45887;SDS011;31595;51.418;7.572;2023-01-01T06:43:53;5.93;;;2.10;;
45887;SDS011;31595;51.418;7.572;2023-01-01T06:46:21;6.03;;;1.80;;
45887;SDS011;31595;51.418;7.572;2023-01-01T06:48:50;4.10;;;1.40;;
45887;SDS011;31595;51.418;7.572;2023-01-01T06:51:21;5.05;;;1.42;;
45887;SDS011;31595;51.418;7.572;2023-01-01T06:53:49;5.60;;;1.92;;
45887;SDS011;31595;51.418;7.572;2023-01-01T06:56:18;3.65;;;1.50;;
45887;SDS011;31595;51.418;7.572;2023-01-01T06:58:46;6.40;;;1.58;;
45887;SDS011;31595;51.418;7.572;2023-01-01T07:01:14;2.63;;;1.38;;
45887;SDS011;31595;51.418;7.572;2023-01-01T07:03:48;4.90;;;1.73;;
45887;SDS011;31595;51.418;7.572;2023-01-01T07:06:17;4.30;;;1.50;;
45887;SDS011;31595;51.418;7.572;2023-01-01T07:08:46;4.05;;;1.52;;
45887;SDS011;31595;51.418;7.572;2023-01-01T07:11:13;2.92;;;1.40;;
45887;SDS011;31595;51.418;7.572;2023-01-01T07:13:41;4.18;;;1.80;;
45887;SDS011;31595;51.418;7.572;2023-01-01T07:16:08;4.60;;;1.50;;
45887;SDS011;31595;51.418;7.572;2023-01-01T07:18:40;3.35;;;1.40;;
45887;SDS011;31595;51.418;7.572;2023-01-01T07:21:20;3.72;;;1.40;;
45887;SDS011;31595;51.418;7.572;2023-01-01T07:23:58;5.82;;;1.95;;
45887;SDS011;31595;51.418;7.572;2023-01-01T07:26:27;3.90;;;1.65;;
45887;SDS011;31595;51.418;7.572;2023-01-01T07:28:56;4.63;;;1.43;;
45887;SDS011;31595;51.418;7.572;2023-01-01T07:31:25;5.25;;;1.73;;
45887;SDS011;31595;51.418;7.572;2023-01-01T07:33:52;3.75;;;1.60;;
45887;SDS011;31595;51.418;7.572;2023-01-01T07:36:20;4.20;;;1.77;;
45887;SDS011;31595;51.418;7.572;2023-01-01T07:38:47;6.60;;;2.00;;
45887;SDS011;31595;51.418;7.572;2023-01-01T07:41:15;2.85;;;1.70;;
45887;SDS011;31595;51.418;7.572;2023-01-01T07:43:43;3.72;;;1.70;;
45887;SDS011;31595;51.418;7.572;2023-01-01T07:46:13;3.40;;;1.27;;
45887;SDS011;31595;51.418;7.572;2023-01-01T07:48:43;3.33;;;1.63;;
45887;SDS011;31595;51.418;7.572;2023-01-01T07:51:10;4.85;;;1.80;;
45887;SDS011;31595;51.418;7.572;2023-01-01T07:53:38;7.40;;;1.40;;
45887;SDS011;31595;51.418;7.572;2023-01-01T07:56:05;4.15;;;1.45;;
45887;SDS011;31595;51.418;7.572;2023-01-01T07:58:34;3.13;;;1.40;;
45887;SDS011;31595;51.418;7.572;2023-01-01T08:01:04;3.97;;;1.83;;
45887;SDS011;31595;51.418;7.572;2023-01-01T08:03:32;3.42;;;1.40;;
45887;SDS011;31595;51.418;7.572;2023-01-01T08:05:59;3.35;;;1.90;;
45887;SDS011;31595;51.418;7.572;2023-01-01T08:08:31;3.47;;;1.60;;
45887;SDS011;31595;51.418;7.572;2023-01-01T08:10:58;4.43;;;1.80;;
45887;SDS011;31595;51.418;7.572;2023-01-01T08:13:26;4.75;;;1.83;;
45887;SDS011;31595;51.418;7.572;2023-01-01T08:15:55;4.57;;;1.60;;
45887;SDS011;31595;51.418;7.572;2023-01-01T08:18:23;5.68;;;2.17;;
45887;SDS011;31595;51.418;7.572;2023-01-01T08:20:50;4.38;;;1.73;;
45887;SDS011;31595;51.418;7.572;2023-01-01T08:23:17;5.40;;;1.60;;
45887;SDS011;31595;51.418;7.572;2023-01-01T08:25:45;3.83;;;1.88;;
45887;SDS011;31595;51.418;7.572;2023-01-01T08:28:12;3.83;;;1.80;;
45887;SDS011;31595;51.418;7.572;2023-01-01T08:30:39;4.43;;;1.70;;
45887;SDS011;31595;51.418;7.572;2023-01-01T08:33:08;4.53;;;1.80;;
45887;SDS011;31595;51.418;7.572;2023-01-01T08:35:36;5.72;;;1.85;;
45887;SDS011;31595;51.418;7.572;2023-01-01T08:38:06;7.50;;;1.80;;
45887;SDS011;31595;51.418;7.572;2023-01-01T08:40:34;4.53;;;2.03;;
45887;SDS011;31595;51.418;7.572;2023-01-01T08:43:02;6.28;;;1.48;;
45887;SDS011;31595;51.418;7.572;2023-01-01T08:45:29;4.88;;;2.20;;
45887;SDS011;31595;51.418;7.572;2023-01-01T08:47:56;3.85;;;2.10;;
45887;SDS011;31595;51.418;7.572;2023-01-01T08:50:25;4.82;;;1.67;;
45887;SDS011;31595;51.418;7.572;2023-01-01T08:52:52;4.03;;;1.67;;
45887;SDS011;31595;51.418;7.572;2023-01-01T08:55:19;3.45;;;1.77;;
45887;SDS011;31595;51.418;7.572;2023-01-01T08:57:47;4.10;;;1.63;;
45887;SDS011;31595;51.418;7.572;2023-01-01T09:00:14;4.40;;;1.80;;
45887;SDS011;31595;51.418;7.572;2023-01-01T09:02:42;5.38;;;1.83;;
45887;SDS011;31595;51.418;7.572;2023-01-01T09:05:10;3.60;;;1.80;;
45887;SDS011;31595;51.418;7.572;2023-01-01T09:07:38;4.18;;;1.67;;
45887;SDS011;31595;51.418;7.572;2023-01-01T09:10:06;5.72;;;1.85;;
45887;SDS011;31595;51.418;7.572;2023-01-01T09:12:33;3.83;;;1.70;;
45887;SDS011;31595;51.418;7.572;2023-01-01T09:15:01;5.72;;;1.92;;
45887;SDS011;31595;51.418;7.572;2023-01-01T09:17:28;4.25;;;1.90;;
45887;SDS011;31595;51.418;7.572;2023-01-01T09:19:55;4.15;;;1.90;;
45887;SDS011;31595;51.418;7.572;2023-01-01T09:22:23;5.22;;;1.95;;
45887;SDS011;31595;51.418;7.572;2023-01-01T09:24:51;4.88;;;1.85;;
45887;SDS011;31595;51.418;7.572;2023-01-01T09:27:18;5.78;;;1.88;;
45887;SDS011;31595;51.418;7.572;2023-01-01T09:29:46;5.70;;;2.10;;
45887;SDS011;31595;51.418;7.572;2023-01-01T09:32:13;5.68;;;1.80;;
45887;SDS011;31595;51.418;7.572;2023-01-01T09:34:40;6.15;;;2.00;;
45887;SDS011;31595;51.418;7.572;2023-01-01T09:37:07;3.97;;;1.65;;
45887;SDS011;31595;51.418;7.572;2023-01-01T09:39:35;3.58;;;1.60;;
45887;SDS011;31595;51.418;7.572;2023-01-01T09:45:07;6.05;;;1.95;;
45887;SDS011;31595;51.418;7.572;2023-01-01T09:47:44;5.93;;;1.83;;
45887;SDS011;31595;51.418;7.572;2023-01-01T09:50:17;3.78;;;1.67;;
45887;SDS011;31595;51.418;7.572;2023-01-01T09:52:48;4.03;;;1.73;;
45887;SDS011;31595;51.418;7.572;2023-01-01T09:55:25;3.83;;;1.67;;
45887;SDS011;31595;51.418;7.572;2023-01-01T09:57:54;4.82;;;1.70;;
45887;SDS011;31595;51.418;7.572;2023-01-01T10:00:24;3.87;;;1.80;;
45887;SDS011;31595;51.418;7.572;2023-01-01T10:02:55;4.55;;;1.95;;
45887;SDS011;31595;51.418;7.572;2023-01-01T10:05:48;4.50;;;2.03;;
45887;SDS011;31595;51.418;7.572;2023-01-01T10:08:26;5.25;;;2.10;;
45887;SDS011;31595;51.418;7.572;2023-01-01T10:11:03;4.32;;;1.70;;
45887;SDS011;31595;51.418;7.572;2023-01-01T10:13:36;4.68;;;1.90;;
45887;SDS011;31595;51.418;7.572;2023-01-01T10:16:09;5.63;;;1.83;;
45887;SDS011;31595;51.418;7.572;2023-01-01T10:18:44;4.13;;;1.70;;
45887;SDS011;31595;51.418;7.572;2023-01-01T10:21:16;5.00;;;1.80;;
45887;SDS011;31595;51.418;7.572;2023-01-01T10:23:49;3.42;;;1.58;;
45887;SDS011;31595;51.418;7.572;2023-01-01T10:26:21;4.57;;;1.83;;
45887;SDS011;31595;51.418;7.572;2023-01-01T10:28:53;4.75;;;1.50;;
45887;SDS011;31595;51.418;7.572;2023-01-01T10:31:29;5.13;;;2.10;;
45887;SDS011;31595;51.418;7.572;2023-01-01T10:34:00;3.97;;;1.75;;
45887;SDS011;31595;51.418;7.572;2023-01-01T10:36:34;3.83;;;1.70;;
45887;SDS011;31595;51.418;7.572;2023-01-01T10:39:02;4.22;;;1.55;;
45887;SDS011;31595;51.418;7.572;2023-01-01T10:41:29;3.35;;;1.73;;
45887;SDS011;31595;51.418;7.572;2023-01-01T10:43:57;5.93;;;1.92;;
45887;SDS011;31595;51.418;7.572;2023-01-01T10:46:24;7.78;;;1.75;;
45887;SDS011;31595;51.418;7.572;2023-01-01T10:49:04;4.68;;;1.70;;
45887;SDS011;31595;51.418;7.572;2023-01-01T10:51:36;5.72;;;1.73;;
45887;SDS011;31595;51.418;7.572;2023-01-01T10:54:14;4.38;;;1.77;;
45887;SDS011;31595;51.418;7.572;2023-01-01T10:56:56;6.33;;;2.30;;
45887;SDS011;31595;51.418;7.572;2023-01-01T10:59:32;4.20;;;1.60;;
45887;SDS011;31595;51.418;7.572;2023-01-01T11:02:14;4.63;;;1.88;;
45887;SDS011;31595;51.418;7.572;2023-01-01T11:04:45;3.08;;;1.25;;
45887;SDS011;31595;51.418;7.572;2023-01-01T11:07:17;4.07;;;1.55;;
45887;SDS011;31595;51.418;7.572;2023-01-01T11:09:49;4.32;;;1.95;;
45887;SDS011;31595;51.418;7.572;2023-01-01T11:12:20;6.35;;;1.63;;
45887;SDS011;31595;51.418;7.572;2023-01-01T11:14:53;3.83;;;1.60;;
45887;SDS011;31595;51.418;7.572;2023-01-01T11:17:24;3.67;;;1.30;;
45887;SDS011;31595;51.418;7.572;2023-01-01T11:19:55;5.65;;;1.80;;
45887;SDS011;31595;51.418;7.572;2023-01-01T11:25:15;6.00;;;1.40;;
45887;SDS011;31595;51.418;7.572;2023-01-01T11:27:45;5.68;;;1.90;;
45887;SDS011;31595;51.418;7.572;2023-01-01T11:30:17;5.18;;;1.55;;
45887;SDS011;31595;51.418;7.572;2023-01-01T11:32:47;5.53;;;1.75;;
45887;SDS011;31595;51.418;7.572;2023-01-01T11:35:18;5.30;;;1.88;;
45887;SDS011;31595;51.418;7.572;2023-01-01T11:37:48;4.60;;;1.65;;
45887;SDS011;31595;51.418;7.572;2023-01-01T11:40:17;7.23;;;1.87;;
45887;SDS011;31595;51.418;7.572;2023-01-01T11:42:50;5.15;;;1.52;;
45887;SDS011;31595;51.418;7.572;2023-01-01T11:45:21;3.33;;;1.95;;
45887;SDS011;31595;51.418;7.572;2023-01-01T11:47:51;6.68;;;1.95;;
45887;SDS011;31595;51.418;7.572;2023-01-01T11:50:23;3.40;;;1.75;;
45887;SDS011;31595;51.418;7.572;2023-01-01T11:52:54;5.70;;;1.63;;
45887;SDS011;31595;51.418;7.572;2023-01-01T11:55:31;5.20;;;1.73;;
45887;SDS011;31595;51.418;7.572;2023-01-01T11:58:09;4.35;;;1.98;;
45887;SDS011;31595;51.418;7.572;2023-01-01T12:00:43;5.88;;;1.85;;
45887;SDS011;31595;51.418;7.572;2023-01-01T12:03:19;3.78;;;1.60;;
45887;SDS011;31595;51.418;7.572;2023-01-01T12:05:51;4.82;;;1.75;;
45887;SDS011;31595;51.418;7.572;2023-01-01T12:08:27;4.68;;;1.73;;
45887;SDS011;31595;51.418;7.572;2023-01-01T12:11:00;4.78;;;2.05;;
45887;SDS011;31595;51.418;7.572;2023-01-01T12:13:34;7.28;;;2.25;;
45887;SDS011;31595;51.418;7.572;2023-01-01T12:16:10;6.60;;;2.17;;
45887;SDS011;31595;51.418;7.572;2023-01-01T12:18:43;5.60;;;1.75;;
45887;SDS011;31595;51.418;7.572;2023-01-01T12:21:17;5.07;;;1.80;;
45887;SDS011;31595;51.418;7.572;2023-01-01T12:23:49;4.82;;;2.13;;
45887;SDS011;31595;51.418;7.572;2023-01-01T12:26:18;5.18;;;1.85;;
45887;SDS011;31595;51.418;7.572;2023-01-01T12:29:00;5.05;;;1.77;;
45887;SDS011;31595;51.418;7.572;2023-01-01T12:31:54;5.85;;;1.67;;
45887;SDS011;31595;51.418;7.572;2023-01-01T12:34:29;4.88;;;2.13;;
45887;SDS011;31595;51.418;7.572;2023-01-01T12:37:06;3.58;;;1.48;;
45887;SDS011;31595;51.418;7.572;2023-01-01T12:39:53;4.63;;;1.50;;
45887;SDS011;31595;51.418;7.572;2023-01-01T12:42:55;3.60;;;1.88;;
45887;SDS011;31595;51.418;7.572;2023-01-01T12:48:26;6.90;;;1.80;;
45887;SDS011;31595;51.418;7.572;2023-01-01T12:51:06;3.25;;;1.63;;
45887;SDS011;31595;51.418;7.572;2023-01-01T12:53:46;3.83;;;1.65;;
45887;SDS011;31595;51.418;7.572;2023-01-01T12:56:27;3.53;;;1.52;;
45887;SDS011;31595;51.418;7.572;2023-01-01T12:59:01;6.88;;;1.67;;
45887;SDS011;31595;51.418;7.572;2023-01-01T13:01:36;4.93;;;1.75;;
45887;SDS011;31595;51.418;7.572;2023-01-01T13:04:06;7.40;;;2.05;;
45887;SDS011;31595;51.418;7.572;2023-01-01T13:06:38;3.20;;;1.50;;
45887;SDS011;31595;51.418;7.572;2023-01-01T13:09:12;7.03;;;2.53;;
45887;SDS011;31595;51.418;7.572;2023-01-01T13:11:44;6.28;;;2.05;;
45887;SDS011;31595;51.418;7.572;2023-01-01T13:14:16;4.63;;;1.50;;
45887;SDS011;31595;51.418;7.572;2023-01-01T13:16:44;5.55;;;1.65;;
45887;SDS011;31595;51.418;7.572;2023-01-01T13:19:23;5.38;;;1.98;;
45887;SDS011;31595;51.418;7.572;2023-01-01T13:21:53;4.93;;;1.83;;
45887;SDS011;31595;51.418;7.572;2023-01-01T13:24:22;5.95;;;2.17;;
45887;SDS011;31595;51.418;7.572;2023-01-01T13:26:51;6.22;;;2.03;;
45887;SDS011;31595;51.418;7.572;2023-01-01T13:32:13;4.07;;;1.67;;
45887;SDS011;31595;51.418;7.572;2023-01-01T13:34:45;5.15;;;1.85;;
45887;SDS011;31595;51.418;7.572;2023-01-01T13:37:30;5.88;;;1.65;;
45887;SDS011;31595;51.418;7.572;2023-01-01T13:43:22;3.60;;;1.95;;
45887;SDS011;31595;51.418;7.572;2023-01-01T13:45:52;4.13;;;1.40;;
45887;SDS011;31595;51.418;7.572;2023-01-01T13:48:25;7.07;;;2.20;;
45887;SDS011;31595;51.418;7.572;2023-01-01T13:51:02;6.82;;;2.08;;
45887;SDS011;31595;51.418;7.572;2023-01-01T13:53:50;4.13;;;1.75;;
45887;SDS011;31595;51.418;7.572;2023-01-01T13:56:35;6.28;;;1.98;;
45887;SDS011;31595;51.418;7.572;2023-01-01T13:59:22;5.22;;;2.60;;
45887;SDS011;31595;51.418;7.572;2023-01-01T14:02:14;6.47;;;1.85;;
45887;SDS011;31595;51.418;7.572;2023-01-01T14:04:48;4.95;;;2.45;;
45887;SDS011;31595;51.418;7.572;2023-01-01T14:07:30;5.82;;;2.30;;
45887;SDS011;31595;51.418;7.572;2023-01-01T14:10:16;5.82;;;2.17;;
45887;SDS011;31595;51.418;7.572;2023-01-01T14:12:47;6.35;;;1.75;;
45887;SDS011;31595;51.418;7.572;2023-01-01T14:15:18;4.95;;;1.80;;
45887;SDS011;31595;51.418;7.572;2023-01-01T14:17:50;5.05;;;1.90;;
45887;SDS011;31595;51.418;7.572;2023-01-01T14:20:20;4.13;;;1.80;;
45887;SDS011;31595;51.418;7.572;2023-01-01T14:22:49;5.05;;;1.80;;
45887;SDS011;31595;51.418;7.572;2023-01-01T14:25:20;3.60;;;1.73;;
45887;SDS011;31595;51.418;7.572;2023-01-01T14:27:54;4.35;;;1.60;;
45887;SDS011;31595;51.418;7.572;2023-01-01T14:30:23;5.65;;;1.70;;
45887;SDS011;31595;51.418;7.572;2023-01-01T14:32:55;4.20;;;2.05;;
45887;SDS011;31595;51.418;7.572;2023-01-01T14:35:23;3.78;;;1.50;;
45887;SDS011;31595;51.418;7.572;2023-01-01T14:37:51;5.72;;;1.50;;
45887;SDS011;31595;51.418;7.572;2023-01-01T14:40:19;6.75;;;1.85;;
45887;SDS011;31595;51.418;7.572;2023-01-01T14:42:55;4.13;;;1.60;;
45887;SDS011;31595;51.418;7.572;2023-01-01T14:45:25;6.07;;;1.90;;
45887;SDS011;31595;51.418;7.572;2023-01-01T14:47:54;6.05;;;1.60;;
45887;SDS011;31595;51.418;7.572;2023-01-01T14:50:23;4.22;;;1.90;;
45887;SDS011;31595;51.418;7.572;2023-01-01T14:52:55;4.75;;;1.92;;
45887;SDS011;31595;51.418;7.572;2023-01-01T14:55:27;3.40;;;1.58;;
45887;SDS011;31595;51.418;7.572;2023-01-01T14:58:00;6.40;;;1.52;;
45887;SDS011;31595;51.418;7.572;2023-01-01T15:00:31;3.85;;;1.77;;
45887;SDS011;31595;51.418;7.572;2023-01-01T15:03:03;3.50;;;1.90;;
45887;SDS011;31595;51.418;7.572;2023-01-01T15:05:33;5.85;;;2.33;;
45887;SDS011;31595;51.418;7.572;2023-01-01T15:08:01;4.90;;;1.58;;
45887;SDS011;31595;51.418;7.572;2023-01-01T15:13:05;4.68;;;1.40;;
45887;SDS011;31595;51.418;7.572;2023-01-01T15:15:33;4.18;;;1.38;;
45887;SDS011;31595;51.418;7.572;2023-01-01T15:18:06;5.68;;;1.73;;
45887;SDS011;31595;51.418;7.572;2023-01-01T15:21:08;4.97;;;2.00;;
45887;SDS011;31595;51.418;7.572;2023-01-01T15:23:42;4.15;;;1.77;;
45887;SDS011;31595;51.418;7.572;2023-01-01T15:26:15;4.28;;;1.40;;
45887;SDS011;31595;51.418;7.572;2023-01-01T15:28:54;4.40;;;1.67;;
45887;SDS011;31595;51.418;7.572;2023-01-01T15:31:22;2.58;;;1.35;;